Ana Sayfa
METAR-TAF:

METAR-TAF

Havaalanları :

Remada, Tunus

Enlem: 32-19N, Boylam: 010-24E, yükseklik: 300 m

Güncel hava durumu gözlemi

Rapor saat 13:00 UTC de 20 dakika önce yapıldı.
Rüzgar güneydoğudan 4 kt, doğu ve güney arasında değişken
Sıcaklık 21°C
Nem 43%
Basınç 1015 hPa
Görüş mesafesi: 8000 m
2300 ft yükseklikte az bulutlu

METAR: DTTD 081300Z 13004KT 080V190 8000 FEW023 21/08 Q1015

Saat: 14:20 (13:20 UTC)


TAF: eksik

4.000'den fazla havaalanı için hava durumu gözlemleri ve tahminleri (METAR ve TAF raporları).

Kullanılabilir istasyonlar harita üzerinde sarı ve kırmızı noktalarla gösterilir.

İstasyonun adını görmek için fareyi noktanın üzerinde gezdirin.

Sonrasında hava gözlem ve tahminlerini görmek için tıklayın.

Haritayı değiştirmek için: yaklaştırmak için siyah artı işaretli yeşil düğmeye ve uzaklaştırmak için de eksi işaretli düğmeye hızla tıklayın; bitişik haritalar için yeşil okları kullanın.


METAR-TAF: